sensor_id;sensor_type;location;lat;lon;timestamp;P1;durP1;ratioP1;P2;durP2;ratioP2
75894;SDS011;64573;50.328;15.014;2022-11-23T00:00:31;61.92;;;28.45;;
75894;SDS011;64573;50.328;15.014;2022-11-23T00:02:57;66.22;;;31.55;;
75894;SDS011;64573;50.328;15.014;2022-11-23T00:05:23;70.97;;;30.88;;
75894;SDS011;64573;50.328;15.014;2022-11-23T00:07:49;73.88;;;31.38;;
75894;SDS011;64573;50.328;15.014;2022-11-23T00:10:15;81.95;;;34.30;;
75894;SDS011;64573;50.328;15.014;2022-11-23T00:12:41;73.47;;;30.90;;
75894;SDS011;64573;50.328;15.014;2022-11-23T00:15:07;72.68;;;31.45;;
75894;SDS011;64573;50.328;15.014;2022-11-23T00:17:32;79.32;;;33.78;;
75894;SDS011;64573;50.328;15.014;2022-11-23T00:19:58;108.07;;;40.30;;
75894;SDS011;64573;50.328;15.014;2022-11-23T00:22:23;150.27;;;50.13;;
75894;SDS011;64573;50.328;15.014;2022-11-23T00:24:49;104.63;;;40.17;;
75894;SDS011;64573;50.328;15.014;2022-11-23T00:27:14;93.05;;;36.08;;
75894;SDS011;64573;50.328;15.014;2022-11-23T00:29:39;95.38;;;37.08;;
75894;SDS011;64573;50.328;15.014;2022-11-23T00:32:05;97.00;;;37.80;;
75894;SDS011;64573;50.328;15.014;2022-11-23T00:34:30;95.30;;;38.72;;
75894;SDS011;64573;50.328;15.014;2022-11-23T00:36:55;107.70;;;38.25;;
75894;SDS011;64573;50.328;15.014;2022-11-23T00:39:21;73.32;;;32.95;;
75894;SDS011;64573;50.328;15.014;2022-11-23T00:41:46;75.68;;;32.05;;
75894;SDS011;64573;50.328;15.014;2022-11-23T00:44:12;75.40;;;32.90;;
75894;SDS011;64573;50.328;15.014;2022-11-23T00:46:37;83.45;;;35.70;;
75894;SDS011;64573;50.328;15.014;2022-11-23T00:49:02;80.40;;;33.88;;
75894;SDS011;64573;50.328;15.014;2022-11-23T00:51:29;69.20;;;31.25;;
75894;SDS011;64573;50.328;15.014;2022-11-23T00:53:56;74.80;;;31.17;;
75894;SDS011;64573;50.328;15.014;2022-11-23T00:56:22;71.70;;;29.85;;
75894;SDS011;64573;50.328;15.014;2022-11-23T00:58:50;76.05;;;33.03;;
75894;SDS011;64573;50.328;15.014;2022-11-23T01:01:18;82.75;;;34.70;;
75894;SDS011;64573;50.328;15.014;2022-11-23T01:03:46;73.72;;;31.27;;
75894;SDS011;64573;50.328;15.014;2022-11-23T01:06:14;64.80;;;28.80;;
75894;SDS011;64573;50.328;15.014;2022-11-23T01:08:51;66.57;;;29.02;;
75894;SDS011;64573;50.328;15.014;2022-11-23T01:11:18;62.33;;;27.65;;
75894;SDS011;64573;50.328;15.014;2022-11-23T01:13:44;77.53;;;34.17;;
75894;SDS011;64573;50.328;15.014;2022-11-23T01:18:34;80.30;;;33.00;;
75894;SDS011;64573;50.328;15.014;2022-11-23T01:21:00;82.82;;;33.72;;
75894;SDS011;64573;50.328;15.014;2022-11-23T01:23:27;94.97;;;37.92;;
75894;SDS011;64573;50.328;15.014;2022-11-23T01:25:53;96.15;;;40.15;;
75894;SDS011;64573;50.328;15.014;2022-11-23T01:28:19;89.82;;;38.45;;
75894;SDS011;64573;50.328;15.014;2022-11-23T01:30:44;72.53;;;31.15;;
75894;SDS011;64573;50.328;15.014;2022-11-23T01:33:09;72.10;;;29.33;;
75894;SDS011;64573;50.328;15.014;2022-11-23T01:35:35;72.97;;;30.42;;
75894;SDS011;64573;50.328;15.014;2022-11-23T01:38:00;68.00;;;29.08;;
75894;SDS011;64573;50.328;15.014;2022-11-23T01:40:25;67.20;;;29.45;;
75894;SDS011;64573;50.328;15.014;2022-11-23T01:42:52;72.03;;;29.08;;
75894;SDS011;64573;50.328;15.014;2022-11-23T01:48:07;70.82;;;29.13;;
75894;SDS011;64573;50.328;15.014;2022-11-23T01:50:47;69.47;;;28.33;;
75894;SDS011;64573;50.328;15.014;2022-11-23T01:53:15;69.47;;;28.88;;
75894;SDS011;64573;50.328;15.014;2022-11-23T01:55:42;67.35;;;27.38;;
75894;SDS011;64573;50.328;15.014;2022-11-23T01:58:10;71.70;;;28.88;;
75894;SDS011;64573;50.328;15.014;2022-11-23T02:00:39;75.60;;;29.40;;
75894;SDS011;64573;50.328;15.014;2022-11-23T02:03:05;81.68;;;29.33;;
75894;SDS011;64573;50.328;15.014;2022-11-23T02:05:35;69.53;;;30.20;;
75894;SDS011;64573;50.328;15.014;2022-11-23T02:08:04;84.27;;;33.70;;
75894;SDS011;64573;50.328;15.014;2022-11-23T02:10:31;74.35;;;30.63;;
75894;SDS011;64573;50.328;15.014;2022-11-23T02:13:05;74.82;;;28.45;;
75894;SDS011;64573;50.328;15.014;2022-11-23T02:15:33;73.55;;;29.23;;
75894;SDS011;64573;50.328;15.014;2022-11-23T02:18:00;59.95;;;26.75;;
75894;SDS011;64573;50.328;15.014;2022-11-23T02:20:28;57.88;;;26.40;;
75894;SDS011;64573;50.328;15.014;2022-11-23T02:28:24;50.45;;;24.08;;
75894;SDS011;64573;50.328;15.014;2022-11-23T02:30:53;55.17;;;24.23;;
75894;SDS011;64573;50.328;15.014;2022-11-23T02:33:19;51.15;;;24.30;;
75894;SDS011;64573;50.328;15.014;2022-11-23T02:35:48;47.45;;;24.48;;
75894;SDS011;64573;50.328;15.014;2022-11-23T02:38:15;49.65;;;23.85;;
75894;SDS011;64573;50.328;15.014;2022-11-23T02:43:07;57.38;;;25.50;;
75894;SDS011;64573;50.328;15.014;2022-11-23T02:45:34;58.25;;;25.45;;
75894;SDS011;64573;50.328;15.014;2022-11-23T02:48:02;59.83;;;26.50;;
75894;SDS011;64573;50.328;15.014;2022-11-23T02:50:29;52.00;;;24.10;;
75894;SDS011;64573;50.328;15.014;2022-11-23T02:52:54;56.35;;;25.80;;
75894;SDS011;64573;50.328;15.014;2022-11-23T02:55:20;53.58;;;24.75;;
75894;SDS011;64573;50.328;15.014;2022-11-23T02:57:45;57.20;;;25.83;;
75894;SDS011;64573;50.328;15.014;2022-11-23T03:00:11;51.15;;;25.98;;
75894;SDS011;64573;50.328;15.014;2022-11-23T03:02:37;55.65;;;25.08;;
75894;SDS011;64573;50.328;15.014;2022-11-23T03:05:02;62.55;;;27.27;;
75894;SDS011;64573;50.328;15.014;2022-11-23T03:07:28;56.42;;;26.35;;
75894;SDS011;64573;50.328;15.014;2022-11-23T03:09:53;62.17;;;26.73;;
75894;SDS011;64573;50.328;15.014;2022-11-23T03:12:19;55.42;;;26.75;;
75894;SDS011;64573;50.328;15.014;2022-11-23T03:14:44;56.65;;;25.52;;
75894;SDS011;64573;50.328;15.014;2022-11-23T03:19:38;55.10;;;26.35;;
75894;SDS011;64573;50.328;15.014;2022-11-23T03:22:04;61.35;;;26.95;;
75894;SDS011;64573;50.328;15.014;2022-11-23T03:24:29;62.58;;;27.55;;
75894;SDS011;64573;50.328;15.014;2022-11-23T03:26:55;60.40;;;25.92;;
75894;SDS011;64573;50.328;15.014;2022-11-23T03:29:20;48.28;;;23.38;;
75894;SDS011;64573;50.328;15.014;2022-11-23T03:31:50;54.95;;;25.02;;
75894;SDS011;64573;50.328;15.014;2022-11-23T03:34:18;54.67;;;24.80;;
75894;SDS011;64573;50.328;15.014;2022-11-23T03:36:44;52.08;;;24.67;;
75894;SDS011;64573;50.328;15.014;2022-11-23T03:39:09;52.22;;;23.83;;
75894;SDS011;64573;50.328;15.014;2022-11-23T03:41:35;51.08;;;23.92;;
75894;SDS011;64573;50.328;15.014;2022-11-23T03:44:00;51.88;;;22.92;;
75894;SDS011;64573;50.328;15.014;2022-11-23T03:46:26;48.63;;;24.05;;
75894;SDS011;64573;50.328;15.014;2022-11-23T03:48:51;54.47;;;25.55;;
75894;SDS011;64573;50.328;15.014;2022-11-23T03:51:17;59.42;;;25.08;;
75894;SDS011;64573;50.328;15.014;2022-11-23T03:53:42;61.58;;;24.88;;
75894;SDS011;64573;50.328;15.014;2022-11-23T03:56:07;62.67;;;25.77;;
75894;SDS011;64573;50.328;15.014;2022-11-23T03:58:33;67.05;;;26.92;;
75894;SDS011;64573;50.328;15.014;2022-11-23T04:00:58;67.35;;;26.95;;
75894;SDS011;64573;50.328;15.014;2022-11-23T04:03:24;61.05;;;27.45;;
75894;SDS011;64573;50.328;15.014;2022-11-23T04:05:50;54.55;;;25.60;;
75894;SDS011;64573;50.328;15.014;2022-11-23T04:08:15;60.88;;;25.90;;
75894;SDS011;64573;50.328;15.014;2022-11-23T04:10:40;61.10;;;26.02;;
75894;SDS011;64573;50.328;15.014;2022-11-23T04:13:05;62.83;;;25.27;;
75894;SDS011;64573;50.328;15.014;2022-11-23T04:15:31;55.38;;;24.02;;
75894;SDS011;64573;50.328;15.014;2022-11-23T04:17:56;60.67;;;24.80;;
75894;SDS011;64573;50.328;15.014;2022-11-23T04:20:22;61.03;;;27.15;;
75894;SDS011;64573;50.328;15.014;2022-11-23T04:22:47;63.58;;;25.67;;
75894;SDS011;64573;50.328;15.014;2022-11-23T04:27:37;57.95;;;23.67;;
75894;SDS011;64573;50.328;15.014;2022-11-23T04:30:03;60.15;;;25.27;;
75894;SDS011;64573;50.328;15.014;2022-11-23T04:32:29;62.05;;;24.88;;
75894;SDS011;64573;50.328;15.014;2022-11-23T04:34:54;54.25;;;24.27;;
75894;SDS011;64573;50.328;15.014;2022-11-23T04:37:19;55.13;;;24.35;;
75894;SDS011;64573;50.328;15.014;2022-11-23T04:39:45;56.17;;;24.60;;
75894;SDS011;64573;50.328;15.014;2022-11-23T04:42:10;59.78;;;26.15;;
75894;SDS011;64573;50.328;15.014;2022-11-23T04:44:36;59.50;;;26.67;;
75894;SDS011;64573;50.328;15.014;2022-11-23T04:49:36;66.43;;;27.63;;
75894;SDS011;64573;50.328;15.014;2022-11-23T04:52:02;70.00;;;28.13;;
75894;SDS011;64573;50.328;15.014;2022-11-23T04:54:27;62.70;;;26.70;;
75894;SDS011;64573;50.328;15.014;2022-11-23T04:56:53;70.43;;;27.92;;
75894;SDS011;64573;50.328;15.014;2022-11-23T05:04:22;72.95;;;28.17;;
75894;SDS011;64573;50.328;15.014;2022-11-23T05:09:23;75.60;;;29.23;;
75894;SDS011;64573;50.328;15.014;2022-11-23T05:11:48;80.32;;;28.95;;
75894;SDS011;64573;50.328;15.014;2022-11-23T05:14:13;81.20;;;30.02;;
75894;SDS011;64573;50.328;15.014;2022-11-23T05:16:39;75.60;;;29.27;;
75894;SDS011;64573;50.328;15.014;2022-11-23T05:19:05;71.55;;;30.17;;
75894;SDS011;64573;50.328;15.014;2022-11-23T05:23:59;68.88;;;28.98;;
75894;SDS011;64573;50.328;15.014;2022-11-23T05:28:52;71.47;;;27.05;;
75894;SDS011;64573;50.328;15.014;2022-11-23T05:31:17;60.38;;;25.17;;
75894;SDS011;64573;50.328;15.014;2022-11-23T05:33:43;62.20;;;25.40;;
75894;SDS011;64573;50.328;15.014;2022-11-23T05:36:09;64.00;;;26.38;;
75894;SDS011;64573;50.328;15.014;2022-11-23T05:41:10;82.28;;;30.17;;
75894;SDS011;64573;50.328;15.014;2022-11-23T05:43:35;85.10;;;32.88;;
75894;SDS011;64573;50.328;15.014;2022-11-23T05:46:04;89.13;;;34.42;;
75894;SDS011;64573;50.328;15.014;2022-11-23T05:48:30;84.30;;;32.17;;
75894;SDS011;64573;50.328;15.014;2022-11-23T05:50:55;103.85;;;35.30;;
75894;SDS011;64573;50.328;15.014;2022-11-23T05:53:20;92.68;;;35.28;;
75894;SDS011;64573;50.328;15.014;2022-11-23T05:55:46;84.97;;;32.88;;
75894;SDS011;64573;50.328;15.014;2022-11-23T05:58:11;85.60;;;30.98;;
75894;SDS011;64573;50.328;15.014;2022-11-23T06:05:37;86.85;;;34.28;;
75894;SDS011;64573;50.328;15.014;2022-11-23T06:08:03;84.30;;;34.38;;
75894;SDS011;64573;50.328;15.014;2022-11-23T06:13:00;81.22;;;33.25;;
75894;SDS011;64573;50.328;15.014;2022-11-23T06:20:32;83.38;;;34.30;;
75894;SDS011;64573;50.328;15.014;2022-11-23T06:23:00;80.90;;;33.33;;
75894;SDS011;64573;50.328;15.014;2022-11-23T06:25:26;83.68;;;33.08;;
75894;SDS011;64573;50.328;15.014;2022-11-23T06:30:17;96.75;;;37.45;;
75894;SDS011;64573;50.328;15.014;2022-11-23T06:32:43;96.00;;;36.53;;
75894;SDS011;64573;50.328;15.014;2022-11-23T06:37:34;62.20;;;26.83;;
75894;SDS011;64573;50.328;15.014;2022-11-23T06:40:02;53.70;;;24.13;;
75894;SDS011;64573;50.328;15.014;2022-11-23T06:44:53;58.33;;;25.98;;
75894;SDS011;64573;50.328;15.014;2022-11-23T06:47:18;53.15;;;24.95;;
75894;SDS011;64573;50.328;15.014;2022-11-23T06:49:43;59.75;;;25.30;;
75894;SDS011;64573;50.328;15.014;2022-11-23T06:52:09;60.85;;;25.20;;
75894;SDS011;64573;50.328;15.014;2022-11-23T06:54:34;62.65;;;25.42;;
75894;SDS011;64573;50.328;15.014;2022-11-23T06:56:59;53.28;;;24.60;;
75894;SDS011;64573;50.328;15.014;2022-11-23T06:59:25;54.35;;;24.05;;
75894;SDS011;64573;50.328;15.014;2022-11-23T07:01:50;54.22;;;24.08;;
75894;SDS011;64573;50.328;15.014;2022-11-23T07:04:16;55.28;;;24.90;;
75894;SDS011;64573;50.328;15.014;2022-11-23T07:06:41;63.83;;;26.95;;
75894;SDS011;64573;50.328;15.014;2022-11-23T07:09:06;65.13;;;28.77;;
75894;SDS011;64573;50.328;15.014;2022-11-23T07:14:06;60.10;;;27.75;;
75894;SDS011;64573;50.328;15.014;2022-11-23T07:16:31;70.47;;;28.13;;
75894;SDS011;64573;50.328;15.014;2022-11-23T07:18:56;59.25;;;26.23;;
75894;SDS011;64573;50.328;15.014;2022-11-23T07:21:22;64.13;;;27.85;;
75894;SDS011;64573;50.328;15.014;2022-11-23T07:23:47;63.33;;;26.38;;
75894;SDS011;64573;50.328;15.014;2022-11-23T07:26:12;55.10;;;25.67;;
75894;SDS011;64573;50.328;15.014;2022-11-23T07:28:38;61.10;;;26.85;;
75894;SDS011;64573;50.328;15.014;2022-11-23T07:31:03;61.15;;;27.15;;
75894;SDS011;64573;50.328;15.014;2022-11-23T07:33:28;60.13;;;26.35;;
75894;SDS011;64573;50.328;15.014;2022-11-23T07:35:54;58.20;;;26.00;;
75894;SDS011;64573;50.328;15.014;2022-11-23T07:38:19;54.13;;;24.17;;
75894;SDS011;64573;50.328;15.014;2022-11-23T07:40:47;53.50;;;23.80;;
75894;SDS011;64573;50.328;15.014;2022-11-23T07:43:14;52.08;;;24.17;;
75894;SDS011;64573;50.328;15.014;2022-11-23T07:45:40;46.88;;;22.75;;
75894;SDS011;64573;50.328;15.014;2022-11-23T07:53:12;46.95;;;21.52;;
75894;SDS011;64573;50.328;15.014;2022-11-23T07:55:37;49.45;;;22.83;;
75894;SDS011;64573;50.328;15.014;2022-11-23T08:03:05;49.28;;;21.80;;
75894;SDS011;64573;50.328;15.014;2022-11-23T08:05:31;46.95;;;21.17;;
75894;SDS011;64573;50.328;15.014;2022-11-23T08:08:00;41.67;;;20.95;;
75894;SDS011;64573;50.328;15.014;2022-11-23T08:10:32;46.35;;;22.40;;
75894;SDS011;64573;50.328;15.014;2022-11-23T08:13:06;51.65;;;23.20;;
75894;SDS011;64573;50.328;15.014;2022-11-23T08:15:32;47.38;;;21.63;;
75894;SDS011;64573;50.328;15.014;2022-11-23T08:17:58;48.35;;;21.33;;
75894;SDS011;64573;50.328;15.014;2022-11-23T08:20:26;46.35;;;21.67;;
75894;SDS011;64573;50.328;15.014;2022-11-23T08:25:17;53.88;;;25.95;;
75894;SDS011;64573;50.328;15.014;2022-11-23T08:27:43;63.28;;;29.58;;
75894;SDS011;64573;50.328;15.014;2022-11-23T08:30:08;90.40;;;41.10;;
75894;SDS011;64573;50.328;15.014;2022-11-23T08:32:34;90.80;;;42.03;;
75894;SDS011;64573;50.328;15.014;2022-11-23T08:34:59;72.13;;;34.05;;
75894;SDS011;64573;50.328;15.014;2022-11-23T08:37:25;79.50;;;37.75;;
75894;SDS011;64573;50.328;15.014;2022-11-23T08:39:50;82.15;;;38.25;;
75894;SDS011;64573;50.328;15.014;2022-11-23T08:42:16;76.10;;;35.75;;
75894;SDS011;64573;50.328;15.014;2022-11-23T08:44:41;68.65;;;33.40;;
75894;SDS011;64573;50.328;15.014;2022-11-23T08:47:06;69.50;;;33.20;;
75894;SDS011;64573;50.328;15.014;2022-11-23T08:49:32;63.75;;;30.55;;
75894;SDS011;64573;50.328;15.014;2022-11-23T08:51:57;65.13;;;30.25;;
75894;SDS011;64573;50.328;15.014;2022-11-23T08:54:22;59.17;;;28.55;;
75894;SDS011;64573;50.328;15.014;2022-11-23T08:56:48;55.40;;;26.25;;
75894;SDS011;64573;50.328;15.014;2022-11-23T08:59:14;45.75;;;22.33;;
75894;SDS011;64573;50.328;15.014;2022-11-23T09:01:41;45.58;;;22.05;;
75894;SDS011;64573;50.328;15.014;2022-11-23T09:04:07;48.25;;;23.50;;
75894;SDS011;64573;50.328;15.014;2022-11-23T09:06:33;46.90;;;23.67;;
75894;SDS011;64573;50.328;15.014;2022-11-23T09:08:58;44.22;;;23.42;;
75894;SDS011;64573;50.328;15.014;2022-11-23T09:11:24;47.03;;;23.30;;
75894;SDS011;64573;50.328;15.014;2022-11-23T09:13:50;45.50;;;23.75;;
75894;SDS011;64573;50.328;15.014;2022-11-23T09:16:16;46.13;;;23.42;;
75894;SDS011;64573;50.328;15.014;2022-11-23T09:18:41;45.47;;;22.98;;
75894;SDS011;64573;50.328;15.014;2022-11-23T09:21:07;39.80;;;21.42;;
75894;SDS011;64573;50.328;15.014;2022-11-23T09:23:32;43.50;;;23.63;;
75894;SDS011;64573;50.328;15.014;2022-11-23T09:26:01;56.03;;;27.70;;
75894;SDS011;64573;50.328;15.014;2022-11-23T09:28:27;54.97;;;29.50;;
75894;SDS011;64573;50.328;15.014;2022-11-23T09:30:53;49.40;;;25.20;;
75894;SDS011;64573;50.328;15.014;2022-11-23T09:33:20;53.60;;;25.52;;
75894;SDS011;64573;50.328;15.014;2022-11-23T09:38:21;56.88;;;27.63;;
75894;SDS011;64573;50.328;15.014;2022-11-23T09:40:46;55.28;;;28.25;;
75894;SDS011;64573;50.328;15.014;2022-11-23T09:53:48;48.78;;;23.55;;
75894;SDS011;64573;50.328;15.014;2022-11-23T09:56:26;47.88;;;24.20;;
75894;SDS011;64573;50.328;15.014;2022-11-23T09:58:55;50.65;;;25.05;;
75894;SDS011;64573;50.328;15.014;2022-11-23T10:01:22;52.13;;;24.90;;
75894;SDS011;64573;50.328;15.014;2022-11-23T10:03:49;52.55;;;24.60;;
75894;SDS011;64573;50.328;15.014;2022-11-23T10:06:16;51.47;;;25.77;;
75894;SDS011;64573;50.328;15.014;2022-11-23T10:17:04;63.95;;;30.83;;
75894;SDS011;64573;50.328;15.014;2022-11-23T10:19:57;70.70;;;31.13;;
75894;SDS011;64573;50.328;15.014;2022-11-23T10:25:15;65.15;;;32.17;;
75894;SDS011;64573;50.328;15.014;2022-11-23T10:27:48;70.70;;;32.60;;
75894;SDS011;64573;50.328;15.014;2022-11-23T10:30:15;70.95;;;34.28;;
75894;SDS011;64573;50.328;15.014;2022-11-23T10:32:47;71.63;;;34.03;;
75894;SDS011;64573;50.328;15.014;2022-11-23T10:35:21;75.38;;;35.65;;
75894;SDS011;64573;50.328;15.014;2022-11-23T10:37:47;82.25;;;38.70;;
75894;SDS011;64573;50.328;15.014;2022-11-23T10:40:16;80.22;;;37.22;;
75894;SDS011;64573;50.328;15.014;2022-11-23T10:42:53;85.68;;;37.97;;
75894;SDS011;64573;50.328;15.014;2022-11-23T10:45:24;81.10;;;36.10;;
75894;SDS011;64573;50.328;15.014;2022-11-23T10:47:54;69.07;;;34.00;;
75894;SDS011;64573;50.328;15.014;2022-11-23T10:50:29;74.25;;;35.08;;
75894;SDS011;64573;50.328;15.014;2022-11-23T10:53:12;68.60;;;32.85;;
75894;SDS011;64573;50.328;15.014;2022-11-23T10:58:28;66.22;;;31.15;;
75894;SDS011;64573;50.328;15.014;2022-11-23T11:03:34;63.03;;;31.02;;
75894;SDS011;64573;50.328;15.014;2022-11-23T11:06:00;62.30;;;30.83;;
75894;SDS011;64573;50.328;15.014;2022-11-23T11:08:30;63.13;;;31.60;;
75894;SDS011;64573;50.328;15.014;2022-11-23T11:11:01;62.85;;;31.20;;
75894;SDS011;64573;50.328;15.014;2022-11-23T11:15:59;61.15;;;29.83;;
75894;SDS011;64573;50.328;15.014;2022-11-23T11:18:27;64.72;;;32.97;;
75894;SDS011;64573;50.328;15.014;2022-11-23T11:20:58;64.75;;;31.10;;
75894;SDS011;64573;50.328;15.014;2022-11-23T11:23:31;55.42;;;28.77;;
75894;SDS011;64573;50.328;15.014;2022-11-23T11:26:22;61.85;;;28.48;;
75894;SDS011;64573;50.328;15.014;2022-11-23T11:28:48;55.97;;;27.88;;
75894;SDS011;64573;50.328;15.014;2022-11-23T11:36:39;55.15;;;26.60;;
75894;SDS011;64573;50.328;15.014;2022-11-23T11:41:45;51.72;;;26.60;;
75894;SDS011;64573;50.328;15.014;2022-11-23T11:44:18;47.70;;;25.42;;
75894;SDS011;64573;50.328;15.014;2022-11-23T11:46:51;52.05;;;27.17;;
75894;SDS011;64573;50.328;15.014;2022-11-23T11:49:22;50.35;;;27.05;;
75894;SDS011;64573;50.328;15.014;2022-11-23T11:51:53;51.53;;;27.38;;
75894;SDS011;64573;50.328;15.014;2022-11-23T11:57:02;56.55;;;28.08;;
75894;SDS011;64573;50.328;15.014;2022-11-23T11:59:51;49.35;;;27.00;;
75894;SDS011;64573;50.328;15.014;2022-11-23T12:07:43;53.13;;;28.30;;
75894;SDS011;64573;50.328;15.014;2022-11-23T12:10:29;56.22;;;28.73;;
75894;SDS011;64573;50.328;15.014;2022-11-23T12:13:00;58.13;;;27.33;;
75894;SDS011;64573;50.328;15.014;2022-11-23T12:26:02;52.70;;;27.38;;
75894;SDS011;64573;50.328;15.014;2022-11-23T12:31:30;55.72;;;28.25;;
75894;SDS011;64573;50.328;15.014;2022-11-23T12:34:01;52.30;;;27.77;;
75894;SDS011;64573;50.328;15.014;2022-11-23T12:36:44;54.38;;;28.70;;
75894;SDS011;64573;50.328;15.014;2022-11-23T12:41:48;52.40;;;27.30;;
75894;SDS011;64573;50.328;15.014;2022-11-23T12:55:21;49.58;;;25.48;;
75894;SDS011;64573;50.328;15.014;2022-11-23T12:57:55;45.45;;;23.63;;
75894;SDS011;64573;50.328;15.014;2022-11-23T13:00:29;47.97;;;24.30;;
75894;SDS011;64573;50.328;15.014;2022-11-23T13:23:54;40.22;;;20.60;;
75894;SDS011;64573;50.328;15.014;2022-11-23T13:26:21;41.08;;;21.42;;
75894;SDS011;64573;50.328;15.014;2022-11-23T13:28:48;44.67;;;22.35;;
75894;SDS011;64573;50.328;15.014;2022-11-23T13:33:44;38.53;;;20.23;;
75894;SDS011;64573;50.328;15.014;2022-11-23T13:36:11;40.55;;;21.25;;
75894;SDS011;64573;50.328;15.014;2022-11-23T13:38:59;38.80;;;19.23;;
75894;SDS011;64573;50.328;15.014;2022-11-23T13:44:48;39.70;;;19.58;;
75894;SDS011;64573;50.328;15.014;2022-11-23T13:47:03;44.17;;;20.23;;
75894;SDS011;64573;50.328;15.014;2022-11-23T13:49:33;44.03;;;20.60;;
75894;SDS011;64573;50.328;15.014;2022-11-23T13:52:19;40.50;;;20.02;;
75894;SDS011;64573;50.328;15.014;2022-11-23T13:57:20;42.90;;;21.02;;
75894;SDS011;64573;50.328;15.014;2022-11-23T13:59:46;39.92;;;20.02;;
75894;SDS011;64573;50.328;15.014;2022-11-23T14:02:25;38.50;;;19.58;;
75894;SDS011;64573;50.328;15.014;2022-11-23T14:05:16;40.15;;;18.55;;
75894;SDS011;64573;50.328;15.014;2022-11-23T14:09:51;43.90;;;19.83;;
75894;SDS011;64573;50.328;15.014;2022-11-23T14:35:19;45.28;;;20.92;;
75894;SDS011;64573;50.328;15.014;2022-11-23T14:43:21;38.25;;;18.77;;
75894;SDS011;64573;50.328;15.014;2022-11-23T14:45:46;48.22;;;20.25;;
75894;SDS011;64573;50.328;15.014;2022-11-23T14:48:22;49.97;;;22.98;;
75894;SDS011;64573;50.328;15.014;2022-11-23T14:50:55;52.47;;;22.92;;
75894;SDS011;64573;50.328;15.014;2022-11-23T14:53:24;58.08;;;24.88;;
75894;SDS011;64573;50.328;15.014;2022-11-23T14:55:53;64.30;;;31.48;;
75894;SDS011;64573;50.328;15.014;2022-11-23T14:58:20;66.85;;;31.08;;
75894;SDS011;64573;50.328;15.014;2022-11-23T15:00:49;65.90;;;31.88;;
75894;SDS011;64573;50.328;15.014;2022-11-23T15:03:16;77.95;;;34.65;;
75894;SDS011;64573;50.328;15.014;2022-11-23T15:05:52;76.57;;;32.28;;
75894;SDS011;64573;50.328;15.014;2022-11-23T15:08:28;72.50;;;28.77;;
75894;SDS011;64573;50.328;15.014;2022-11-23T15:10:59;66.30;;;28.83;;
75894;SDS011;64573;50.328;15.014;2022-11-23T15:13:31;61.05;;;28.02;;
75894;SDS011;64573;50.328;15.014;2022-11-23T15:16:08;64.45;;;27.55;;
75894;SDS011;64573;50.328;15.014;2022-11-23T15:18:36;61.58;;;26.50;;
75894;SDS011;64573;50.328;15.014;2022-11-23T15:23:42;56.58;;;23.60;;
75894;SDS011;64573;50.328;15.014;2022-11-23T15:26:14;51.72;;;22.33;;
75894;SDS011;64573;50.328;15.014;2022-11-23T15:28:41;56.15;;;23.15;;
75894;SDS011;64573;50.328;15.014;2022-11-23T15:33:35;54.30;;;21.75;;
75894;SDS011;64573;50.328;15.014;2022-11-23T15:36:00;56.65;;;24.70;;
75894;SDS011;64573;50.328;15.014;2022-11-23T15:38:27;63.40;;;26.23;;
75894;SDS011;64573;50.328;15.014;2022-11-23T15:40:53;69.13;;;29.25;;
75894;SDS011;64573;50.328;15.014;2022-11-23T15:43:29;124.57;;;50.15;;
75894;SDS011;64573;50.328;15.014;2022-11-23T15:48:27;80.13;;;31.92;;
75894;SDS011;64573;50.328;15.014;2022-11-23T15:50:59;150.75;;;67.88;;
75894;SDS011;64573;50.328;15.014;2022-11-23T15:53:26;94.78;;;44.63;;
75894;SDS011;64573;50.328;15.014;2022-11-23T15:55:54;70.57;;;31.35;;
75894;SDS011;64573;50.328;15.014;2022-11-23T15:58:24;86.25;;;40.28;;
75894;SDS011;64573;50.328;15.014;2022-11-23T16:00:54;100.78;;;45.00;;
75894;SDS011;64573;50.328;15.014;2022-11-23T16:03:26;107.07;;;43.72;;
75894;SDS011;64573;50.328;15.014;2022-11-23T16:08:29;100.32;;;40.88;;
75894;SDS011;64573;50.328;15.014;2022-11-23T16:10:59;96.28;;;37.30;;
75894;SDS011;64573;50.328;15.014;2022-11-23T16:15:58;87.93;;;32.13;;
75894;SDS011;64573;50.328;15.014;2022-11-23T16:18:24;86.38;;;31.95;;
75894;SDS011;64573;50.328;15.014;2022-11-23T16:20:59;79.28;;;29.23;;
75894;SDS011;64573;50.328;15.014;2022-11-23T16:23:40;78.78;;;29.77;;
75894;SDS011;64573;50.328;15.014;2022-11-23T16:26:09;84.85;;;33.70;;
75894;SDS011;64573;50.328;15.014;2022-11-23T16:31:01;92.30;;;34.65;;
75894;SDS011;64573;50.328;15.014;2022-11-23T16:35:56;95.38;;;35.58;;
75894;SDS011;64573;50.328;15.014;2022-11-23T16:38:21;84.22;;;31.98;;
75894;SDS011;64573;50.328;15.014;2022-11-23T16:40:48;103.13;;;37.00;;
75894;SDS011;64573;50.328;15.014;2022-11-23T16:43:14;94.78;;;33.33;;
75894;SDS011;64573;50.328;15.014;2022-11-23T16:45:44;81.80;;;28.42;;
75894;SDS011;64573;50.328;15.014;2022-11-23T16:50:49;76.15;;;28.08;;
75894;SDS011;64573;50.328;15.014;2022-11-23T16:53:16;82.53;;;31.95;;
75894;SDS011;64573;50.328;15.014;2022-11-23T16:55:44;89.35;;;35.95;;
75894;SDS011;64573;50.328;15.014;2022-11-23T16:58:12;78.00;;;32.80;;
75894;SDS011;64573;50.328;15.014;2022-11-23T17:00:42;83.95;;;36.40;;
75894;SDS011;64573;50.328;15.014;2022-11-23T17:03:14;98.53;;;41.20;;
75894;SDS011;64573;50.328;15.014;2022-11-23T17:05:41;217.37;;;89.07;;
75894;SDS011;64573;50.328;15.014;2022-11-23T17:08:06;224.93;;;99.10;;
75894;SDS011;64573;50.328;15.014;2022-11-23T17:10:31;178.27;;;70.07;;
75894;SDS011;64573;50.328;15.014;2022-11-23T17:12:58;153.35;;;64.40;;
75894;SDS011;64573;50.328;15.014;2022-11-23T17:15:24;136.48;;;58.08;;
75894;SDS011;64573;50.328;15.014;2022-11-23T17:17:49;143.32;;;57.85;;
75894;SDS011;64573;50.328;15.014;2022-11-23T17:20:15;125.82;;;53.40;;
75894;SDS011;64573;50.328;15.014;2022-11-23T17:22:42;120.47;;;49.55;;
75894;SDS011;64573;50.328;15.014;2022-11-23T17:25:08;111.50;;;47.08;;
75894;SDS011;64573;50.328;15.014;2022-11-23T17:27:39;101.00;;;45.35;;
75894;SDS011;64573;50.328;15.014;2022-11-23T17:30:09;143.40;;;61.78;;
75894;SDS011;64573;50.328;15.014;2022-11-23T17:32:34;109.55;;;49.97;;
75894;SDS011;64573;50.328;15.014;2022-11-23T17:34:59;107.57;;;45.28;;
75894;SDS011;64573;50.328;15.014;2022-11-23T17:37:24;105.88;;;47.15;;
75894;SDS011;64573;50.328;15.014;2022-11-23T17:39:50;113.82;;;52.88;;
75894;SDS011;64573;50.328;15.014;2022-11-23T17:42:16;113.18;;;50.38;;
75894;SDS011;64573;50.328;15.014;2022-11-23T17:44:41;109.50;;;49.60;;
75894;SDS011;64573;50.328;15.014;2022-11-23T17:49:36;125.47;;;53.42;;
75894;SDS011;64573;50.328;15.014;2022-11-23T17:52:01;134.95;;;55.92;;
75894;SDS011;64573;50.328;15.014;2022-11-23T17:54:27;116.72;;;50.03;;
75894;SDS011;64573;50.328;15.014;2022-11-23T17:56:52;120.00;;;50.97;;
75894;SDS011;64573;50.328;15.014;2022-11-23T17:59:17;113.57;;;52.08;;